createdAt,value
2018-04-07T00:01:48.734Z,7.50
2018-04-07T00:04:16.340Z,7.90
2018-04-07T00:06:43.902Z,8.73
2018-04-07T00:09:11.516Z,8.20
2018-04-07T00:11:39.051Z,7.30
2018-04-07T00:14:06.610Z,8.73
2018-04-07T00:16:34.146Z,8.40
2018-04-07T00:19:02.495Z,8.83
2018-04-07T00:21:30.075Z,8.40
2018-04-07T00:23:57.668Z,8.60
2018-04-07T00:26:25.210Z,9.93
2018-04-07T00:28:53.508Z,9.73
2018-04-07T00:31:21.138Z,9.60
2018-04-07T00:33:48.766Z,9.63
2018-04-07T00:36:16.360Z,9.27
2018-04-07T00:38:43.988Z,8.70
2018-04-07T00:41:11.532Z,9.07
2018-04-07T00:43:39.102Z,9.50
2018-04-07T00:46:06.632Z,9.43
2018-04-07T00:48:34.208Z,10.00
2018-04-07T00:51:01.773Z,9.03
2018-04-07T00:53:29.294Z,8.00
2018-04-07T00:55:56.848Z,7.37
2018-04-07T00:58:25.181Z,6.50
2018-04-07T01:00:52.726Z,6.73
2018-04-07T01:03:20.304Z,7.70
2018-04-07T01:05:47.897Z,9.30
2018-04-07T01:08:15.473Z,7.03
2018-04-07T01:10:43.013Z,8.03
2018-04-07T01:13:10.633Z,7.03
2018-04-07T01:15:38.173Z,6.77
2018-04-07T01:18:05.740Z,6.73
2018-04-07T01:20:33.267Z,6.47
2018-04-07T01:23:01.584Z,6.27
2018-04-07T01:25:29.129Z,5.97
2018-04-07T01:27:56.697Z,6.30
2018-04-07T01:30:24.297Z,6.13
2018-04-07T01:32:51.813Z,6.30
2018-04-07T01:35:19.405Z,6.07
2018-04-07T01:37:47.040Z,7.20
2018-04-07T01:40:14.649Z,6.40
2018-04-07T01:42:42.172Z,6.33
2018-04-07T01:45:09.742Z,6.03
2018-04-07T01:47:37.269Z,6.23
2018-04-07T01:50:05.432Z,6.50
2018-04-07T01:52:33.016Z,6.50
2018-04-07T01:55:00.550Z,7.00
2018-04-07T01:57:28.094Z,6.43
2018-04-07T01:59:55.662Z,6.43
2018-04-07T02:02:23.989Z,6.33
2018-04-07T02:04:51.538Z,6.53
2018-04-07T02:07:19.096Z,5.73
2018-04-07T02:09:46.658Z,6.30
2018-04-07T02:12:14.271Z,6.10
2018-04-07T02:14:41.786Z,6.10
2018-04-07T02:17:09.369Z,7.37
2018-04-07T02:19:36.914Z,7.30
2018-04-07T02:22:04.503Z,6.83
2018-04-07T02:24:32.078Z,6.87
2018-04-07T02:26:59.678Z,8.63
2018-04-07T02:29:27.211Z,7.57
2018-04-07T02:31:54.793Z,7.83
2018-04-07T02:34:22.371Z,8.20
2018-04-07T02:36:49.891Z,9.23
2018-04-07T02:39:17.487Z,8.40
2018-04-07T02:41:45.014Z,7.67
2018-04-07T02:44:12.614Z,6.83
2018-04-07T02:46:40.169Z,7.87
2018-04-07T02:49:07.695Z,7.57
2018-04-07T02:51:35.250Z,7.57
2018-04-07T02:54:02.788Z,7.70
2018-04-07T02:56:31.131Z,7.43
2018-04-07T02:58:59.028Z,7.43
2018-04-07T03:01:26.553Z,9.27
2018-04-07T03:03:54.113Z,7.50
2018-04-07T03:06:21.745Z,7.77
2018-04-07T03:08:49.287Z,7.77
2018-04-07T03:11:16.855Z,7.83
2018-04-07T03:13:44.441Z,7.50
2018-04-07T03:16:12.074Z,6.83
2018-04-07T03:18:40.424Z,7.47
2018-04-07T03:21:08.007Z,6.40
2018-04-07T03:23:35.585Z,7.33
2018-04-07T03:26:03.167Z,7.00
2018-04-07T03:28:30.829Z,6.80
2018-04-07T03:30:58.364Z,6.60
2018-04-07T03:33:25.939Z,7.10
2018-04-07T03:35:53.471Z,7.00
2018-04-07T03:38:21.042Z,7.13
2018-04-07T03:40:49.447Z,7.47
2018-04-07T03:43:17.070Z,7.97
2018-04-07T03:45:44.642Z,9.97
2018-04-07T03:48:12.194Z,10.93
2018-04-07T03:50:39.768Z,8.30
2018-04-07T03:53:07.316Z,8.80
2018-04-07T03:55:34.877Z,7.63
2018-04-07T03:58:02.441Z,7.70
2018-04-07T04:00:30.796Z,7.73
2018-04-07T04:02:58.366Z,7.93
2018-04-07T04:05:25.928Z,7.83
2018-04-07T04:07:53.488Z,8.17
2018-04-07T04:10:21.008Z,7.90
2018-04-07T04:12:48.592Z,9.30
2018-04-07T04:15:16.306Z,7.97
2018-04-07T04:17:43.882Z,7.80
2018-04-07T04:20:11.458Z,7.27
2018-04-07T04:22:39.005Z,7.80
2018-04-07T04:25:06.564Z,7.67
2018-04-07T04:27:34.167Z,7.40
2018-04-07T04:30:02.545Z,7.27
2018-04-07T04:32:30.839Z,8.13
2018-04-07T04:34:58.429Z,7.87
2018-04-07T04:37:26.006Z,7.87
2018-04-07T04:39:53.569Z,7.30
2018-04-07T04:42:21.129Z,7.60
2018-04-07T04:44:48.689Z,8.17
2018-04-07T04:47:16.265Z,7.50
2018-04-07T04:49:44.567Z,8.23
2018-04-07T04:52:12.118Z,7.53
2018-04-07T04:54:39.828Z,7.90
2018-04-07T04:57:07.515Z,7.97
2018-04-07T04:59:35.034Z,8.00
2018-04-07T05:02:02.594Z,8.47
2018-04-07T05:04:30.148Z,7.57
2018-04-07T05:06:57.681Z,8.10
2018-04-07T05:09:25.293Z,7.40
2018-04-07T05:11:53.038Z,8.20
2018-04-07T05:14:20.565Z,8.27
2018-04-07T05:16:48.138Z,8.10
2018-04-07T05:19:15.677Z,7.97
2018-04-07T05:21:44.013Z,7.47
2018-04-07T05:24:11.537Z,8.77
2018-04-07T05:26:39.062Z,8.37
2018-04-07T05:29:06.641Z,8.43
2018-04-07T05:31:34.190Z,7.97
2018-04-07T05:34:02.532Z,8.17
2018-04-07T05:36:30.050Z,8.40
2018-04-07T05:38:57.583Z,9.57
2018-04-07T05:41:25.235Z,8.23
2018-04-07T05:43:52.748Z,8.17
2018-04-07T05:46:20.332Z,8.47
2018-04-07T05:48:47.887Z,8.50
2018-04-07T05:51:15.450Z,8.63
2018-04-07T05:53:43.001Z,8.70
2018-04-07T05:56:10.567Z,8.67
2018-04-07T05:58:38.094Z,8.77
2018-04-07T06:01:05.663Z,9.00
2018-04-07T06:03:33.328Z,8.93
2018-04-07T06:06:00.860Z,9.47
2018-04-07T06:08:28.427Z,9.17
2018-04-07T06:11:00.116Z,9.50
2018-04-07T06:13:27.894Z,8.73
2018-04-07T06:15:55.426Z,9.50
2018-04-07T06:18:23.003Z,9.03
2018-04-07T06:20:51.322Z,8.63
2018-04-07T06:23:19.677Z,8.77
2018-04-07T06:25:47.204Z,8.27
2018-04-07T06:28:14.798Z,10.00
2018-04-07T06:30:42.340Z,8.90
2018-04-07T06:33:09.912Z,8.93
2018-04-07T06:35:37.550Z,8.50
2018-04-07T06:38:05.089Z,9.67
2018-04-07T06:40:32.678Z,9.47
2018-04-07T06:43:00.207Z,9.93
2018-04-07T06:45:27.830Z,9.43
2018-04-07T06:47:55.372Z,9.43
2018-04-07T06:50:22.920Z,9.87
2018-04-07T06:52:50.478Z,10.23
2018-04-07T06:55:18.110Z,9.50
2018-04-07T06:57:45.679Z,10.40
2018-04-07T07:00:13.300Z,9.30
2018-04-07T07:02:40.861Z,9.60
2018-04-07T07:05:09.202Z,10.00
2018-04-07T07:07:36.782Z,10.50
2018-04-07T07:10:04.444Z,9.83
2018-04-07T07:12:32.069Z,9.63
2018-04-07T07:14:59.688Z,9.90
2018-04-07T07:17:28.005Z,10.80
2018-04-07T07:19:55.581Z,10.43
2018-04-07T07:22:23.129Z,9.50
2018-04-07T07:24:50.698Z,10.20
2018-04-07T07:27:18.246Z,10.43
2018-04-07T07:29:45.810Z,10.33
2018-04-07T07:32:13.380Z,10.47
2018-04-07T07:34:40.942Z,9.83
2018-04-07T07:37:08.558Z,9.70
2018-04-07T07:39:36.098Z,9.50
2018-04-07T07:42:04.598Z,9.87
2018-04-07T07:44:32.103Z,9.50
2018-04-07T07:46:59.668Z,9.37
2018-04-07T07:49:27.474Z,8.90
2018-04-07T07:51:55.778Z,9.37
2018-04-07T07:54:23.654Z,9.40
2018-04-07T07:56:51.622Z,8.60
2018-04-07T07:59:19.392Z,9.83
2018-04-07T08:01:46.952Z,10.10
2018-04-07T08:04:14.538Z,9.43
2018-04-07T08:06:42.218Z,9.27
2018-04-07T08:09:09.751Z,9.53
2018-04-07T08:11:37.317Z,9.57
2018-04-07T08:14:04.872Z,8.70
2018-04-07T08:16:32.428Z,9.20
2018-04-07T08:18:59.993Z,7.67
2018-04-07T08:21:27.557Z,7.60
2018-04-07T08:23:55.153Z,7.83
2018-04-07T08:26:22.703Z,8.40
2018-04-07T08:28:51.049Z,7.83
2018-04-07T08:31:20.189Z,7.87
2018-04-07T08:33:47.812Z,8.57
2018-04-07T08:36:15.621Z,8.77
2018-04-07T08:38:44.237Z,8.10
2018-04-07T08:41:11.772Z,8.03
2018-04-07T08:43:39.409Z,8.80
2018-04-07T08:46:06.991Z,8.30
2018-04-07T08:48:35.310Z,7.93
2018-04-07T08:51:02.975Z,8.00
2018-04-07T08:53:30.550Z,8.53
2018-04-07T08:55:58.093Z,8.50
2018-04-07T08:58:25.743Z,8.23
2018-04-07T09:00:53.296Z,8.07
2018-04-07T09:03:20.822Z,7.87
2018-04-07T09:05:48.378Z,7.63
2018-04-07T09:08:15.949Z,7.87
2018-04-07T09:10:43.521Z,7.87
2018-04-07T09:13:11.113Z,7.40
2018-04-07T09:15:38.657Z,7.70
2018-04-07T09:18:06.508Z,8.23
2018-04-07T09:20:34.052Z,8.13
2018-04-07T09:23:01.651Z,8.23
2018-04-07T09:25:29.920Z,8.83
2018-04-07T09:27:57.501Z,8.50
2018-04-07T09:30:25.064Z,8.33
2018-04-07T09:32:52.607Z,7.50
2018-04-07T09:35:20.438Z,7.13
2018-04-07T09:37:48.749Z,7.73
2018-04-07T09:40:16.332Z,7.30
2018-04-07T09:42:43.881Z,8.33
2018-04-07T09:45:11.447Z,7.53
2018-04-07T09:47:39.048Z,7.87
2018-04-07T09:50:06.629Z,6.93
2018-04-07T09:52:34.410Z,8.53
2018-04-07T09:55:02.277Z,8.23
2018-04-07T09:57:29.834Z,9.97
2018-04-07T09:59:57.410Z,12.23
2018-04-07T10:02:24.951Z,9.07
2018-04-07T10:04:52.522Z,7.97
2018-04-07T10:07:20.106Z,8.97
2018-04-07T10:09:47.653Z,7.70
2018-04-07T10:12:15.221Z,7.93
2018-04-07T10:14:43.198Z,7.23
2018-04-07T10:17:10.717Z,6.80
2018-04-07T10:19:38.622Z,7.03
2018-04-07T10:22:06.222Z,7.03
2018-04-07T10:24:33.741Z,7.27
2018-04-07T10:27:01.533Z,6.97
2018-04-07T10:29:29.058Z,6.37
2018-04-07T10:31:57.238Z,7.90
2018-04-07T10:34:24.847Z,7.20
2018-04-07T10:36:52.397Z,7.50
2018-04-07T10:39:20.741Z,6.17
2018-04-07T10:41:48.335Z,7.93
2018-04-07T10:44:16.897Z,6.87
2018-04-07T10:46:44.448Z,7.37
2018-04-07T10:49:12.039Z,7.33
2018-04-07T10:51:39.588Z,7.43
2018-04-07T10:54:07.958Z,6.90
2018-04-07T10:56:35.501Z,6.60
2018-04-07T10:59:03.074Z,7.50
2018-04-07T11:01:30.626Z,6.77
2018-04-07T11:03:58.177Z,6.40
2018-04-07T11:06:25.739Z,6.13
2018-04-07T11:08:53.308Z,6.70
2018-04-07T11:11:21.060Z,6.87
2018-04-07T11:13:48.635Z,6.53
2018-04-07T11:16:16.253Z,7.20
2018-04-07T11:18:43.855Z,6.87
2018-04-07T11:21:11.435Z,6.23
2018-04-07T11:23:39.035Z,6.40
2018-04-07T11:26:06.627Z,6.90
2018-04-07T11:28:34.458Z,6.93
2018-04-07T11:31:02.000Z,7.17
2018-04-07T11:33:29.578Z,6.77
2018-04-07T11:35:57.193Z,6.90
2018-04-07T11:38:24.760Z,7.30
2018-04-07T11:40:52.285Z,6.60
2018-04-07T11:43:19.850Z,6.10
2018-04-07T11:45:47.380Z,7.00
2018-04-07T11:48:14.955Z,5.73
2018-04-07T11:50:42.500Z,5.20
2018-04-07T11:53:10.130Z,5.70
2018-04-07T11:55:37.618Z,5.20
2018-04-07T11:58:05.181Z,5.33
2018-04-07T12:00:32.700Z,5.57
2018-04-07T12:03:01.004Z,5.43
2018-04-07T12:05:28.579Z,5.40
2018-04-07T12:07:56.138Z,5.03
2018-04-07T12:10:24.018Z,4.60
2018-04-07T12:12:51.548Z,4.73
2018-04-07T12:15:19.209Z,4.17
2018-04-07T12:17:46.790Z,4.67
2018-04-07T12:20:14.560Z,4.20
2018-04-07T12:22:42.114Z,4.03
2018-04-07T12:25:10.901Z,4.07
2018-04-07T12:27:38.658Z,3.97
2018-04-07T12:30:06.258Z,4.33
2018-04-07T12:32:33.817Z,3.67
2018-04-07T12:35:01.408Z,3.90
2018-04-07T12:37:29.986Z,3.90
2018-04-07T12:39:57.583Z,3.83
2018-04-07T12:42:25.142Z,3.57
2018-04-07T12:44:52.811Z,3.50
2018-04-07T12:47:24.383Z,3.03
2018-04-07T12:49:51.930Z,3.83
2018-04-07T12:52:19.553Z,3.80
2018-04-07T12:54:47.094Z,3.47
2018-04-07T12:57:14.704Z,4.33
2018-04-07T12:59:42.305Z,3.70
2018-04-07T13:02:09.836Z,3.90
2018-04-07T13:04:37.405Z,2.90
2018-04-07T13:07:05.022Z,3.63
2018-04-07T13:09:32.598Z,3.20
2018-04-07T13:12:00.177Z,3.60
2018-04-07T13:14:28.136Z,3.50
2018-04-07T13:16:55.710Z,3.93
2018-04-07T13:19:23.268Z,3.93
2018-04-07T13:21:50.833Z,3.60
2018-04-07T13:24:18.397Z,3.87
2018-04-07T13:26:46.005Z,3.80
2018-04-07T13:29:14.550Z,3.40
2018-04-07T13:31:42.102Z,4.03
2018-04-07T13:34:10.526Z,4.30
2018-04-07T13:36:38.814Z,4.17
2018-04-07T13:39:06.399Z,4.30
2018-04-07T13:41:33.972Z,4.47
2018-04-07T13:44:01.560Z,4.30
2018-04-07T13:46:29.100Z,4.23
2018-04-07T13:48:56.702Z,4.13
2018-04-07T13:51:25.228Z,4.07
2018-04-07T13:53:52.819Z,5.43
2018-04-07T13:56:20.426Z,6.77
2018-04-07T13:58:48.004Z,6.53
2018-04-07T14:01:15.634Z,6.63
2018-04-07T14:03:43.952Z,7.03
2018-04-07T14:06:11.535Z,7.03
2018-04-07T14:08:39.097Z,7.03
2018-04-07T14:11:07.403Z,6.40
2018-04-07T14:13:34.977Z,6.57
2018-04-07T14:16:02.522Z,6.53
2018-04-07T14:18:30.859Z,6.83
2018-04-07T14:20:58.440Z,6.30
2018-04-07T14:23:26.806Z,6.63
2018-04-07T14:25:54.390Z,6.83
2018-04-07T14:28:21.966Z,6.50
2018-04-07T14:30:49.558Z,7.77
2018-04-07T14:33:17.135Z,7.40
2018-04-07T14:35:44.692Z,7.83
2018-04-07T14:38:12.253Z,7.50
2018-04-07T14:40:39.796Z,6.87
2018-04-07T14:43:07.389Z,7.57
2018-04-07T14:45:34.921Z,7.23
2018-04-07T14:48:02.515Z,8.13
2018-04-07T14:50:30.137Z,8.13
2018-04-07T14:52:57.680Z,7.90
2018-04-07T14:55:25.248Z,8.13
2018-04-07T14:57:52.823Z,7.97
2018-04-07T15:00:20.441Z,7.10
2018-04-07T15:02:48.779Z,7.60
2018-04-07T15:05:16.319Z,7.77
2018-04-07T15:07:43.892Z,8.20
2018-04-07T15:10:11.460Z,8.07
2018-04-07T15:12:39.062Z,7.13
2018-04-07T15:15:06.637Z,8.57
2018-04-07T15:17:34.325Z,6.87
2018-04-07T15:20:01.922Z,7.10
2018-04-07T15:22:29.492Z,6.83
2018-04-07T15:24:57.063Z,6.93
2018-04-07T15:27:24.631Z,6.70
2018-04-07T15:29:52.227Z,7.23
2018-04-07T15:32:19.809Z,7.07
2018-04-07T15:34:48.221Z,6.40
2018-04-07T15:37:15.824Z,6.10
2018-04-07T15:39:43.441Z,6.23
2018-04-07T15:42:11.057Z,5.27
2018-04-07T15:44:38.621Z,5.50
2018-04-07T15:47:06.176Z,5.73
2018-04-07T15:49:33.782Z,5.43
2018-04-07T15:52:01.355Z,6.00
2018-04-07T15:54:28.981Z,6.63
2018-04-07T15:56:56.584Z,6.33
2018-04-07T15:59:24.145Z,6.30
2018-04-07T16:01:51.666Z,6.43
2018-04-07T16:04:19.382Z,6.23
2018-04-07T16:06:46.949Z,6.30
2018-04-07T16:09:14.528Z,5.90
2018-04-07T16:11:42.129Z,6.70
2018-04-07T16:14:09.677Z,6.60
2018-04-07T16:16:38.000Z,6.30
2018-04-07T16:19:05.640Z,6.00
2018-04-07T16:21:33.229Z,6.53
2018-04-07T16:24:00.808Z,6.23
2018-04-07T16:26:28.365Z,7.47
2018-04-07T16:28:55.942Z,6.53
2018-04-07T16:31:23.468Z,6.73
2018-04-07T16:33:51.048Z,6.17
2018-04-07T16:36:18.733Z,6.67
2018-04-07T16:38:46.299Z,5.83
2018-04-07T16:41:13.899Z,5.47
2018-04-07T16:43:41.671Z,6.20
2018-04-07T16:46:09.373Z,6.80
2018-04-07T16:48:36.974Z,6.00
2018-04-07T16:51:04.548Z,6.13
2018-04-07T16:53:32.130Z,6.40
2018-04-07T16:55:59.650Z,5.00
2018-04-07T16:58:27.285Z,6.07
2018-04-07T17:00:55.612Z,5.73
2018-04-07T17:03:23.222Z,5.47
2018-04-07T17:05:50.781Z,5.63
2018-04-07T17:08:18.354Z,5.83
2018-04-07T17:10:46.741Z,5.93
2018-04-07T17:13:15.057Z,5.70
2018-04-07T17:15:42.632Z,5.07
2018-04-07T17:18:10.183Z,4.70
2018-04-07T17:20:37.753Z,5.20
2018-04-07T17:23:05.404Z,5.57
2018-04-07T17:25:32.966Z,5.60
2018-04-07T17:28:00.522Z,5.20
2018-04-07T17:30:28.091Z,5.37
2018-04-07T17:35:38.556Z,5.30
2018-04-07T17:38:06.124Z,6.10
2018-04-07T17:40:33.694Z,6.27
2018-04-07T17:43:01.256Z,5.10
2018-04-07T17:45:28.803Z,5.50
2018-04-07T17:47:56.405Z,5.93
2018-04-07T17:50:24.797Z,5.73
2018-04-07T17:52:53.105Z,5.67
2018-04-07T17:55:20.706Z,6.20
2018-04-07T17:57:48.296Z,6.30
2018-04-07T18:00:15.876Z,5.67
2018-04-07T18:02:43.415Z,5.90
2018-04-07T18:05:10.969Z,6.50
2018-04-07T18:07:38.620Z,6.37
2018-04-07T18:10:06.149Z,6.30
2018-04-07T18:12:34.505Z,5.97
2018-04-07T18:15:02.034Z,6.30
2018-04-07T18:17:29.642Z,5.93
2018-04-07T18:19:57.185Z,5.53
2018-04-07T18:22:24.754Z,6.73
2018-04-07T18:24:52.458Z,7.53
2018-04-07T18:27:20.029Z,6.70
2018-04-07T18:29:48.417Z,7.23
2018-04-07T18:32:16.728Z,6.57
2018-04-07T18:34:44.305Z,5.80
2018-04-07T18:37:11.862Z,7.50
2018-04-07T18:39:39.423Z,7.47
2018-04-07T18:42:06.997Z,7.47
2018-04-07T18:44:34.543Z,7.77
2018-04-07T18:47:02.880Z,7.93
2018-04-07T18:49:30.451Z,7.70
2018-04-07T18:51:58.033Z,7.73
2018-04-07T18:54:25.617Z,7.77
2018-04-07T18:56:53.250Z,8.90
2018-04-07T18:59:20.786Z,7.03
2018-04-07T19:01:48.383Z,8.40
2018-04-07T19:04:16.238Z,8.30
2018-04-07T19:06:43.802Z,8.27
2018-04-07T19:09:11.373Z,8.53
2018-04-07T19:11:38.960Z,8.57
2018-04-07T19:14:06.536Z,8.03
2018-04-07T19:16:34.137Z,7.43
2018-04-07T19:19:01.710Z,8.60
2018-04-07T19:21:29.329Z,7.43
2018-04-07T19:23:57.635Z,8.00
2018-04-07T19:26:25.180Z,7.57
2018-04-07T19:28:52.761Z,7.03
2018-04-07T19:31:20.299Z,7.27
2018-04-07T19:33:47.930Z,7.10
2018-04-07T19:36:15.492Z,7.93
2018-04-07T19:38:43.095Z,8.93
2018-04-07T19:41:10.640Z,8.97
2018-04-07T19:43:38.222Z,9.13
2018-04-07T19:46:05.910Z,10.17
2018-04-07T19:48:33.459Z,9.50
2018-04-07T19:51:01.030Z,8.07
2018-04-07T19:53:28.579Z,7.77
2018-04-07T19:55:56.138Z,8.70
2018-04-07T19:58:23.705Z,8.20
2018-04-07T20:00:51.253Z,8.83
2018-04-07T20:03:18.810Z,9.17
2018-04-07T20:05:46.493Z,9.13
2018-04-07T20:08:15.070Z,8.80
2018-04-07T20:10:42.681Z,9.13
2018-04-07T20:13:10.296Z,9.30
2018-04-07T20:15:37.848Z,9.53
2018-04-07T20:18:05.410Z,9.90
2018-04-07T20:20:33.000Z,9.33
2018-04-07T20:23:00.620Z,9.27
2018-04-07T20:25:28.190Z,9.67
2018-04-07T20:27:55.724Z,9.57
2018-04-07T20:30:23.314Z,9.63
2018-04-07T20:32:50.974Z,8.97
2018-04-07T20:35:18.584Z,9.53
2018-04-07T20:37:46.238Z,9.40
2018-04-07T20:40:13.807Z,9.40
2018-04-07T20:42:41.395Z,9.30
2018-04-07T20:45:08.951Z,9.37
2018-04-07T20:47:36.564Z,8.87
2018-04-07T20:50:04.138Z,8.67
2018-04-07T20:52:31.709Z,8.83
2018-04-07T20:54:59.570Z,9.17
2018-04-07T20:57:27.125Z,9.00
2018-04-07T20:59:54.697Z,9.73
2018-04-07T21:02:22.301Z,9.77
2018-04-07T21:04:49.908Z,8.57
2018-04-07T21:07:18.328Z,9.13
2018-04-07T21:09:45.906Z,9.80
2018-04-07T21:12:13.464Z,8.93
2018-04-07T21:14:41.002Z,8.97
2018-04-07T21:17:08.611Z,8.67
2018-04-07T21:19:36.158Z,8.70
2018-04-07T21:22:03.747Z,8.57
2018-04-07T21:24:31.306Z,8.07
2018-04-07T21:26:58.872Z,9.80
2018-04-07T21:29:26.502Z,9.23
2018-04-07T21:31:54.097Z,9.20
2018-04-07T21:34:21.912Z,9.00
2018-04-07T21:36:49.450Z,9.57
2018-04-07T21:39:16.977Z,9.33
2018-04-07T21:41:44.544Z,10.27
2018-04-07T21:44:12.073Z,10.40
2018-04-07T21:46:39.632Z,9.90
2018-04-07T21:49:07.181Z,10.43
2018-04-07T21:51:34.803Z,9.67
2018-04-07T21:54:02.341Z,10.03
2018-04-07T21:56:29.923Z,10.00
2018-04-07T21:58:58.238Z,8.70
2018-04-07T22:01:25.871Z,8.00
2018-04-07T22:03:53.404Z,7.33
2018-04-07T22:06:20.965Z,7.80
2018-04-07T22:08:48.504Z,7.63
2018-04-07T22:11:16.080Z,7.97
2018-04-07T22:13:43.663Z,7.63
2018-04-07T22:16:12.006Z,7.70
2018-04-07T22:18:40.321Z,7.40
2018-04-07T22:21:07.859Z,7.40
2018-04-07T22:23:35.438Z,7.20
2018-04-07T22:26:03.007Z,6.47
2018-04-07T22:28:30.578Z,5.90
2018-04-07T22:30:58.116Z,6.50
2018-04-07T22:33:25.676Z,6.33
2018-04-07T22:35:53.250Z,6.50
2018-04-07T22:38:20.779Z,6.87
2018-04-07T22:40:48.341Z,5.83
2018-04-07T22:43:16.077Z,6.67
2018-04-07T22:55:23.950Z,8.90
2018-04-07T22:57:51.608Z,9.07
2018-04-07T23:00:21.707Z,9.43
2018-04-07T23:02:50.051Z,9.20
2018-04-07T23:05:17.606Z,9.00
2018-04-07T23:07:45.218Z,9.47
2018-04-07T23:10:13.557Z,8.70
2018-04-07T23:12:41.121Z,9.03
2018-04-07T23:15:08.703Z,8.90
2018-04-07T23:17:36.229Z,8.73
2018-04-07T23:20:03.797Z,9.33
2018-04-07T23:22:31.377Z,8.77
2018-04-07T23:24:59.033Z,8.73
2018-04-07T23:27:26.609Z,6.93
2018-04-07T23:29:54.231Z,7.73
2018-04-07T23:32:21.801Z,9.13
2018-04-07T23:34:49.377Z,9.37
2018-04-07T23:37:16.966Z,9.60
2018-04-07T23:39:44.567Z,9.03
2018-04-07T23:42:12.115Z,8.83
2018-04-07T23:44:39.708Z,9.63
2018-04-07T23:47:07.329Z,8.77
2018-04-07T23:49:35.691Z,8.80
2018-04-07T23:52:04.022Z,8.50
2018-04-07T23:54:31.598Z,8.53
2018-04-07T23:56:59.389Z,9.33
2018-04-07T23:59:26.940Z,8.87
